Time;durP1;ratioP1;P1;durP2;ratioP2;P2;SDS_P1;SDS_P2;PMS_P1;PMS_P2;Temp;Humidity;BMP_temperature;BMP_pressure;BME280_temperature;BME280_humidity;BME280_pressure;Samples;Min_cycle;Max_cycle;Signal;HPM_P1;HPM_P2
2022/05/06 00:01:31;;;;;;;2.58;2.33;;;22.30;57.50;;;;;;5107784;28;20035;-45
2022/05/06 00:03:58;;;;;;;;;;;22.20;60.80;;;;;;5103873;28;20032;-44
2022/05/06 00:06:24;;;;;;;2.92;2.58;;;22.20;61.70;;;;;;5108426;28;19915;-46
2022/05/06 00:08:50;;;;;;;2.30;2.10;;;22.20;62.20;;;;;;5113809;28;20028;-45
2022/05/06 00:11:16;;;;;;;2.38;2.10;;;22.20;59.50;;;;;;5104797;28;20460;-44
2022/05/06 00:13:42;;;;;;;2.92;2.42;;;22.20;58.00;;;;;;5109101;28;20024;-45
2022/05/06 00:16:09;;;;;;;2.38;2.17;;;22.20;56.80;;;;;;5107893;28;20044;-45
2022/05/06 00:18:35;;;;;;;2.38;2.17;;;22.20;57.40;;;;;;5115439;28;20496;-46
2022/05/06 00:21:01;;;;;;;4.68;2.22;;;22.20;60.40;;;;;;5105272;28;20158;-45
2022/05/06 00:23:28;;;;;;;3.72;2.45;;;22.20;61.30;;;;;;5109863;28;20032;-46
2022/05/06 00:25:55;;;;;;;3.40;2.20;;;22.20;62.50;;;;;;5105233;28;20088;-46
2022/05/06 00:28:22;;;;;;;3.38;1.73;;;22.20;58.90;;;;;;5101914;28;20280;-46
2022/05/06 00:30:48;;;;;;;2.20;2.00;;;22.20;57.80;;;;;;5102436;28;20123;-46
2022/05/06 00:33:14;;;;;;;3.95;1.88;;;22.20;59.20;;;;;;5080717;28;20055;-46
2022/05/06 00:35:43;;;;;;;2.33;2.10;;;22.20;58.80;;;;;;5098065;28;20139;-39
2022/05/06 00:38:09;;;;;;;239.45;127.63;;;22.20;58.00;;;;;;5093071;28;20032;-37
2022/05/06 00:40:36;;;;;;;1299.38;632.70;;;22.20;58.20;;;;;;5100677;28;20105;-37
2022/05/06 00:43:23;;;;;;;321.23;147.57;;;22.20;58.40;;;;;;5099188;28;20154;-38
2022/05/06 00:45:53;;;;;;;149.30;64.72;;;22.10;58.50;;;;;;5042362;28;20041;-34
2022/05/06 01:57:49;;;;;;;14.50;7.45;;;22.20;57.60;;;;;;5140382;27;20407;-35
2022/05/06 02:00:16;;;;;;;15.15;6.88;;;22.20;58.20;;;;;;5139671;27;20109;-32
2022/05/06 02:02:42;;;;;;;11.30;6.87;;;22.30;58.10;;;;;;5132235;27;20030;-32
2022/05/06 02:06:50;;;;;;;14.38;6.80;;;22.30;57.70;;;;;;5101968;27;20434;-35
2022/05/06 02:09:16;;;;;;;18.10;6.57;;;22.30;59.00;;;;;;5104687;28;20072;-35
2022/05/06 02:11:43;;;;;;;13.77;6.90;;;22.40;59.80;;;;;;5093395;28;20032;-34
2022/05/06 02:14:09;;;;;;;9.43;6.38;;;22.40;60.20;;;;;;5100253;28;20020;-35
2022/05/06 02:16:35;;;;;;;12.75;6.70;;;22.40;59.40;;;;;;5100416;28;20473;-35
2022/05/06 02:19:03;;;;;;;11.10;5.75;;;22.40;59.30;;;;;;5099452;28;20029;-34
2022/05/06 02:21:29;;;;;;;10.57;6.28;;;22.50;59.30;;;;;;5106946;28;20035;-35
2022/05/06 02:23:55;;;;;;;10.95;5.85;;;22.50;59.30;;;;;;5094594;28;20032;-36
2022/05/06 02:26:21;;;;;;;10.20;5.80;;;22.50;59.30;;;;;;5101890;28;20047;-35
2022/05/06 02:28:47;;;;;;;11.27;5.78;;;22.60;59.30;;;;;;5089100;28;20080;-35
2022/05/06 02:33:58;;;;;;;12.32;5.60;;;22.60;59.20;;;;;;5099632;28;20083;-44
2022/05/06 02:36:36;;;;;;;11.85;5.70;;;22.60;59.20;;;;;;5092996;28;20032;-44
2022/05/06 02:39:02;;;;;;;9.52;5.60;;;22.60;59.10;;;;;;5094055;28;20139;-40
2022/05/06 02:41:29;;;;;;;33.75;17.88;;;22.60;58.80;;;;;;5098351;28;20043;-38
2022/05/06 02:43:55;;;;;;;29.55;16.20;;;22.70;58.90;;;;;;5096595;28;20080;-38
2022/05/06 02:46:21;;;;;;;27.23;12.55;;;22.70;58.20;;;;;;5089463;28;20058;-38
2022/05/06 02:48:47;;;;;;;19.05;9.70;;;22.70;57.30;;;;;;5086541;28;20028;-38
2022/05/06 02:51:13;;;;;;;17.50;9.20;;;22.70;56.40;;;;;;5089995;28;20020;-41
2022/05/06 02:53:39;;;;;;;16.20;8.80;;;22.60;56.10;;;;;;5101327;28;20044;-40
2022/05/06 02:56:05;;;;;;;16.10;7.80;;;22.70;56.30;;;;;;5098366;28;20060;-40
2022/05/06 02:58:32;;;;;;;15.63;8.13;;;22.70;56.50;;;;;;5101009;28;20028;-39
2022/05/06 03:00:58;;;;;;;20.73;7.35;;;22.70;56.70;;;;;;5096709;28;20169;-44
2022/05/06 03:03:25;;;;;;;14.25;7.72;;;22.70;57.20;;;;;;5092100;28;20028;-40
2022/05/06 03:05:51;;;;;;;17.98;7.70;;;22.70;57.30;;;;;;5093270;28;20190;-39
2022/05/06 03:08:17;;;;;;;14.65;6.72;;;22.70;56.80;;;;;;5091662;28;20047;-39
2022/05/06 03:10:44;;;;;;;14.75;6.20;;;22.70;56.10;;;;;;5091791;28;20132;-39
2022/05/06 03:13:10;;;;;;;11.88;5.90;;;22.70;55.50;;;;;;5091896;28;20033;-39
2022/05/06 03:15:36;;;;;;;15.43;5.63;;;22.70;55.40;;;;;;5088920;28;20118;-39
2022/05/06 03:18:03;;;;;;;12.00;6.30;;;22.70;55.80;;;;;;5077664;28;20020;-38
2022/05/06 03:20:29;;;;;;;18.47;6.03;;;22.70;56.40;;;;;;5081580;28;20050;-47
2022/05/06 03:22:55;;;;;;;12.60;6.03;;;22.70;56.90;;;;;;5080189;28;20273;-43
2022/05/06 03:25:21;;;;;;;17.10;6.22;;;22.80;57.30;;;;;;5076745;28;20096;-41
2022/05/06 03:27:59;;;;;;;11.77;5.40;;;22.80;57.00;;;;;;5077279;28;20036;-41
2022/05/06 03:30:26;;;;;;;12.35;5.60;;;22.80;56.70;;;;;;5079956;28;20116;-41
2022/05/06 03:32:55;;;;;;;9.52;5.18;;;22.70;56.20;;;;;;5079585;28;20078;-45
2022/05/06 03:35:21;;;;;;;9.10;4.70;;;22.80;55.90;;;;;;5075169;28;21325;-42
2022/05/06 03:37:47;;;;;;;10.90;4.60;;;22.90;55.30;;;;;;5083471;28;20046;-44
2022/05/06 03:40:15;;;;;;;10.23;4.60;;;22.90;55.50;;;;;;5078872;28;20025;-45
2022/05/06 03:42:41;;;;;;;7.72;3.80;;;23.00;55.50;;;;;;5082359;28;20032;-46
2022/05/06 03:45:09;;;;;;;6.17;3.50;;;22.90;55.20;;;;;;5077161;28;20028;-46
2022/05/06 03:47:36;;;;;;;108.97;42.08;;;22.90;54.80;;;;;;5084007;28;20028;-43
2022/05/06 03:52:48;;;;;;;7.93;4.10;;;22.80;54.30;;;;;;5080287;28;20039;-44
2022/05/06 03:55:14;;;;;;;4.97;3.67;;;22.80;54.30;;;;;;5079042;28;20025;-51
2022/05/06 03:57:42;;;;;;;4.82;3.40;;;22.80;54.30;;;;;;5086655;28;20032;-49
2022/05/06 04:00:10;;;;;;;4.50;3.30;;;22.80;54.20;;;;;;5085390;28;20028;-55
2022/05/06 04:02:36;;;;;;;4.63;3.40;;;22.70;54.10;;;;;;5082478;28;20029;-47
2022/05/06 04:05:04;;;;;;;4.00;2.90;;;22.70;53.90;;;;;;5080236;28;20048;-57
2022/05/06 04:07:30;;;;;;;5.15;3.40;;;22.70;53.80;;;;;;5086440;28;20036;-52
2022/05/06 04:09:56;;;;;;;3.67;2.90;;;22.70;53.80;;;;;;5088828;28;20024;-38
2022/05/06 04:12:23;;;;;;;4.50;2.75;;;22.60;53.60;;;;;;5077668;28;20028;-47
2022/05/06 04:14:52;;;;;;;3.10;2.80;;;22.60;53.50;;;;;;5079431;28;20801;-44
2022/05/06 04:17:20;;;;;;;6.40;2.72;;;22.60;53.50;;;;;;5085572;28;20032;-43
2022/05/06 04:25:19;;;;;;;2.88;2.55;;;22.50;53.50;;;;;;5080923;28;20035;-47
2022/05/06 04:27:45;;;;;;;3.20;2.70;;;22.40;53.60;;;;;;5078200;28;20054;-43
2022/05/06 04:30:12;;;;;;;2.97;2.20;;;22.40;53.50;;;;;;5083286;28;20036;-45
2022/05/06 04:32:38;;;;;;;2.73;2.33;;;22.30;53.50;;;;;;5074899;28;20055;-38
2022/05/06 04:35:06;;;;;;;7.38;3.15;;;22.30;53.40;;;;;;5080451;28;20856;-46
2022/05/06 04:37:35;;;;;;;7.35;2.35;;;22.30;53.30;;;;;;5082593;28;20046;-34
2022/05/06 04:40:01;;;;;;;25.30;8.57;;;22.20;53.40;;;;;;5084425;28;20036;-38
2022/05/06 04:42:28;;;;;;;10.88;5.20;;;22.20;53.30;;;;;;5075016;28;20752;-46
2022/05/06 04:44:55;;;;;;;10.07;3.70;;;22.10;53.00;;;;;;5078584;28;20029;-51
2022/05/06 04:47:21;;;;;;;10.03;3.67;;;22.10;53.00;;;;;;5079646;28;20033;-56
2022/05/06 04:49:47;;;;;;;5.53;3.40;;;22.00;53.20;;;;;;5085877;28;20027;-48
2022/05/06 04:52:13;;;;;;;4.05;3.00;;;22.00;53.20;;;;;;5081873;28;20024;-56
2022/05/06 04:54:39;;;;;;;5.13;2.95;;;22.00;53.30;;;;;;5083709;28;20055;-58
2022/05/06 04:57:06;;;;;;;5.40;2.88;;;21.90;53.30;;;;;;5081100;28;20036;-51
2022/05/06 04:59:32;;;;;;;4.07;2.40;;;21.90;53.50;;;;;;5082213;28;20032;-54
2022/05/06 05:10:11;;;;;;;2.58;2.25;;;21.80;54.00;;;;;;5078690;28;20044;-58
2022/05/06 05:12:37;;;;;;;2.45;1.92;;;21.70;54.00;;;;;;5079190;28;20743;-59
2022/05/06 05:15:04;;;;;;;4.72;2.00;;;21.70;54.00;;;;;;5079735;28;20032;-51
2022/05/06 05:17:30;;;;;;;2.88;1.90;;;21.70;54.10;;;;;;5075766;28;20032;-48
2022/05/06 05:19:56;;;;;;;2.58;1.77;;;21.60;54.10;;;;;;5075665;28;20119;-50
2022/05/06 05:22:22;;;;;;;2.10;1.63;;;21.60;54.00;;;;;;5082827;28;20029;-58
2022/05/06 05:24:48;;;;;;;3.63;1.90;;;21.60;54.10;;;;;;5076017;28;20135;-53
2022/05/06 05:27:15;;;;;;;2.05;1.75;;;21.50;54.10;;;;;;5072386;28;20462;-59
2022/05/06 05:29:42;;;;;;;2.13;1.92;;;21.50;54.10;;;;;;5065470;28;20032;-57
2022/05/06 05:32:08;;;;;;;5.88;1.60;;;21.50;54.20;;;;;;5068112;28;20036;-58
2022/05/06 05:34:35;;;;;;;1.85;1.65;;;21.40;54.20;;;;;;5064540;28;20112;-59
2022/05/06 05:37:01;;;;;;;1.83;1.60;;;21.40;54.30;;;;;;5074258;28;20024;-55
2022/05/06 05:39:27;;;;;;;1.90;1.70;;;21.30;54.20;;;;;;5066219;28;20031;-58
2022/05/06 05:41:53;;;;;;;2.15;1.70;;;21.30;54.20;;;;;;5068319;28;20123;-59
2022/05/06 05:49:50;;;;;;;2.22;1.65;;;21.10;54.10;;;;;;5084233;28;20083;-58
2022/05/06 05:52:16;;;;;;;1.67;1.58;;;21.10;54.20;;;;;;5066736;28;20060;-59
2022/05/06 05:54:42;;;;;;;1.50;1.40;;;21.10;54.20;;;;;;5073472;28;20028;-56
2022/05/06 05:57:08;;;;;;;4.57;2.00;;;21.00;54.20;;;;;;5069264;28;20036;-60
2022/05/06 05:59:34;;;;;;;1.88;1.60;;;21.00;54.40;;;;;;5079319;28;20031;-55
2022/05/06 06:02:02;;;;;;;1.92;1.70;;;21.00;54.40;;;;;;5065287;28;20044;-55
2022/05/06 06:04:28;;;;;;;4.28;1.48;;;20.90;54.60;;;;;;5071222;28;20086;-59
2022/05/06 06:06:54;;;;;;;1.40;1.30;;;20.90;54.70;;;;;;5066766;28;20051;-58
2022/05/06 06:09:22;;;;;;;1.73;1.63;;;20.80;54.60;;;;;;5085564;28;20050;-60
2022/05/06 06:11:49;;;;;;;1.90;1.50;;;20.80;54.60;;;;;;5064676;28;20584;-59
2022/05/06 06:14:16;;;;;;;1.58;1.48;;;20.80;54.70;;;;;;5075936;28;20488;-60
2022/05/06 06:16:42;;;;;;;2.20;2.00;;;20.70;54.80;;;;;;5075778;28;20032;-60
2022/05/06 06:19:09;;;;;;;1.65;1.55;;;20.70;54.80;;;;;;5092456;28;20073;-61
2022/05/06 06:21:35;;;;;;;3.90;1.77;;;20.70;54.90;;;;;;5062115;28;20083;-60
2022/05/06 06:24:01;;;;;;;1.50;1.40;;;20.60;54.90;;;;;;5074019;28;20302;-60
2022/05/06 06:26:27;;;;;;;1.67;1.58;;;20.60;54.90;;;;;;5072720;28;20047;-60
2022/05/06 06:28:54;;;;;;;2.22;1.50;;;20.60;55.20;;;;;;5063809;28;20028;-59
2022/05/06 06:31:21;;;;;;;1.65;1.55;;;20.50;54.80;;;;;;5077578;28;20028;-60
2022/05/06 06:33:47;;;;;;;2.07;1.80;;;20.50;54.90;;;;;;5076490;28;20036;-60
2022/05/06 06:36:13;;;;;;;1.50;1.40;;;20.40;54.90;;;;;;5072612;28;20057;-59
2022/05/06 06:38:40;;;;;;;2.00;1.80;;;20.40;55.00;;;;;;5072517;28;20489;-61
2022/05/06 06:41:06;;;;;;;1.75;1.65;;;20.40;55.00;;;;;;5067396;28;20287;-61
2022/05/06 06:43:32;;;;;;;1.77;1.50;;;20.40;54.90;;;;;;5070949;28;20033;-61
2022/05/06 06:45:58;;;;;;;2.17;1.30;;;20.30;54.80;;;;;;5062924;28;20131;-61
2022/05/06 06:48:25;;;;;;;1.50;1.40;;;20.30;54.90;;;;;;5082393;28;20192;-60
2022/05/06 06:50:52;;;;;;;1.67;1.58;;;20.20;54.80;;;;;;5077453;28;20032;-59
2022/05/06 06:53:19;;;;;;;1.67;1.40;;;20.20;54.80;;;;;;5074052;28;20043;-60
2022/05/06 06:55:46;;;;;;;2.17;1.95;;;20.10;54.90;;;;;;5092965;28;20096;-62
2022/05/06 06:58:12;;;;;;;2.00;1.20;;;20.10;55.20;;;;;;5075159;28;20033;-62
2022/05/06 07:00:38;;;;;;;1.90;1.60;;;20.10;55.20;;;;;;5066580;28;20040;-60
2022/05/06 07:03:04;;;;;;;1.60;1.50;;;20.10;55.20;;;;;;5085470;28;20031;-61
2022/05/06 07:05:30;;;;;;;1.52;1.42;;;20.00;55.00;;;;;;5080364;28;20032;-60
2022/05/06 07:13:28;;;;;;;1.50;1.40;;;19.90;55.40;;;;;;5067172;28;21108;-61
2022/05/06 07:15:54;;;;;;;2.00;1.63;;;19.90;55.40;;;;;;5065621;28;20111;-61
2022/05/06 07:18:20;;;;;;;2.75;1.35;;;19.90;55.50;;;;;;5068315;28;20035;-60
2022/05/06 07:20:48;;;;;;;2.47;1.42;;;19.80;55.50;;;;;;5083426;28;20101;-60
2022/05/06 07:23:14;;;;;;;1.40;1.30;;;19.80;55.60;;;;;;5084649;28;20033;-60
2022/05/06 07:25:40;;;;;;;1.50;1.40;;;19.80;55.80;;;;;;5067770;28;20041;-60
2022/05/06 07:28:07;;;;;;;1.60;1.50;;;19.70;55.70;;;;;;5078669;28;20021;-59
2022/05/06 07:30:34;;;;;;;1.45;1.35;;;19.70;55.70;;;;;;5084261;28;20043;-59
2022/05/06 07:33:00;;;;;;;1.25;1.15;;;19.70;55.80;;;;;;5083975;28;20039;-57
2022/05/06 07:35:26;;;;;;;1.45;1.35;;;19.70;55.80;;;;;;5086650;28;20024;-57
2022/05/06 07:37:52;;;;;;;1.48;1.38;;;19.60;55.70;;;;;;5087299;28;20582;-57
2022/05/06 07:40:18;;;;;;;1.27;1.17;;;19.60;55.60;;;;;;5070621;28;20043;-58
2022/05/06 07:42:45;;;;;;;1.52;1.30;;;19.60;55.50;;;;;;5070026;28;20070;-58
2022/05/06 07:45:11;;;;;;;1.52;1.23;;;19.50;55.40;;;;;;5081837;28;20059;-58
2022/05/06 07:47:38;;;;;;;1.40;1.30;;;19.50;55.30;;;;;;5082854;28;20041;-61
2022/05/06 07:50:05;;;;;;;1.40;1.30;;;19.50;55.50;;;;;;5076773;28;20035;-63
2022/05/06 07:52:31;;;;;;;4.32;1.15;;;19.40;55.50;;;;;;5079064;28;20045;-59
2022/05/06 07:54:57;;;;;;;1.20;1.10;;;19.40;55.80;;;;;;5073011;28;20029;-60
2022/05/06 07:57:23;;;;;;;1.67;1.08;;;19.40;55.90;;;;;;5072850;28;20028;-61
2022/05/06 07:59:49;;;;;;;1.55;1.20;;;19.30;56.00;;;;;;5077073;28;20273;-60
2022/05/06 08:05:00;;;;;;;1.60;1.40;;;19.30;56.00;;;;;;5078861;28;20162;-60
2022/05/06 08:07:26;;;;;;;1.30;1.20;;;19.20;55.80;;;;;;5081440;28;20037;-60
2022/05/06 08:09:53;;;;;;;1.40;1.30;;;19.20;55.80;;;;;;5075201;28;20041;-60
2022/05/06 08:12:19;;;;;;;1.40;1.23;;;19.20;55.70;;;;;;5070496;28;20032;-60
2022/05/06 08:14:45;;;;;;;1.48;1.20;;;19.10;55.60;;;;;;5088072;28;20026;-61
2022/05/06 08:17:11;;;;;;;1.45;1.35;;;19.10;55.70;;;;;;5083971;28;20099;-62
2022/05/06 08:19:37;;;;;;;1.42;1.30;;;19.10;55.60;;;;;;5087066;28;20047;-63
2022/05/06 08:22:05;;;;;;;1.33;1.23;;;19.10;55.60;;;;;;5071388;28;20154;-62
2022/05/06 08:24:31;;;;;;;2.10;1.33;;;19.00;55.50;;;;;;5081463;28;20031;-59
2022/05/06 08:26:57;;;;;;;1.42;1.10;;;19.00;55.60;;;;;;5086331;28;20040;-60
2022/05/06 08:29:23;;;;;;;1.30;1.20;;;19.00;56.00;;;;;;5080212;28;20032;-59
2022/05/06 08:31:50;;;;;;;1.35;1.25;;;18.90;56.10;;;;;;5089226;28;20038;-60
2022/05/06 08:34:17;;;;;;;1.35;1.25;;;18.90;56.60;;;;;;5086567;28;20039;-60
2022/05/06 08:36:44;;;;;;;1.35;1.13;;;18.90;56.10;;;;;;5084908;28;20699;-61
2022/05/06 08:39:11;;;;;;;1.00;0.90;;;18.90;56.60;;;;;;5079521;28;20041;-61
2022/05/06 08:41:38;;;;;;;1.65;0.90;;;18.80;56.00;;;;;;5071795;28;20041;-60
2022/05/06 08:52:37;;;;;;;1.40;1.30;;;18.70;55.80;;;;;;5066457;28;20401;-62
2022/05/06 08:55:04;;;;;;;1.10;1.00;;;18.70;55.90;;;;;;5062492;28;20036;-63
2022/05/06 08:57:30;;;;;;;1.08;0.98;;;18.70;56.00;;;;;;5078850;28;20028;-64
2022/05/06 08:59:56;;;;;;;1.23;1.10;;;18.60;56.00;;;;;;5081708;28;20024;-63
2022/05/06 09:02:23;;;;;;;0.80;0.80;;;18.60;55.90;;;;;;5081224;28;20021;-60
2022/05/06 09:04:49;;;;;;;2.35;1.17;;;18.60;55.90;;;;;;5079282;28;20791;-61
2022/05/06 09:07:22;;;;;;;1.20;1.00;;;18.60;56.00;;;;;;5075939;28;20039;-61
2022/05/06 09:10:20;;;;;;;0.90;0.90;;;18.50;55.90;;;;;;5086835;28;20040;-62
2022/05/06 09:12:46;;;;;;;0.95;0.88;;;18.50;55.80;;;;;;5063619;28;20057;-59
2022/05/06 09:17:59;;;;;;;1.70;0.90;;;18.40;56.10;;;;;;5059167;28;20284;-62
2022/05/06 09:20:26;;;;;;;1.20;0.90;;;18.40;56.10;;;;;;5080538;28;20028;-61
2022/05/06 09:22:53;;;;;;;1.20;1.10;;;18.40;56.10;;;;;;5079536;28;20046;-63
2022/05/06 09:25:42;;;;;;;1.48;0.90;;;18.30;56.10;;;;;;5059382;28;20060;-62
2022/05/06 09:28:19;;;;;;;0.85;0.85;;;18.30;56.10;;;;;;5054046;28;21213;-63
2022/05/06 09:31:08;;;;;;;1.13;1.00;;;18.30;56.80;;;;;;5042830;28;20036;-61
2022/05/06 09:33:35;;;;;;;1.02;0.93;;;18.30;56.30;;;;;;5054489;28;20071;-60
2022/05/06 09:36:19;;;;;;;;;;;18.30;56.20;;;;;;5059066;28;20044;-63
2022/05/06 09:39:01;;;;;;;0.90;0.90;;;18.20;56.10;;;;;;5056898;28;19923;-62
2022/05/06 09:41:27;;;;;;;3.35;1.17;;;18.20;56.20;;;;;;5059389;28;20033;-62
2022/05/06 09:44:03;;;;;;;1.20;1.00;;;18.10;56.10;;;;;;5056399;28;20158;-62
2022/05/06 09:46:29;;;;;;;1.10;1.00;;;18.10;56.00;;;;;;5059188;28;20076;-62
2022/05/06 09:48:56;;;;;;;0.90;0.90;;;18.10;55.90;;;;;;5065296;28;20037;-61
2022/05/06 09:51:33;;;;;;;1.00;0.90;;;18.10;55.90;;;;;;5073781;28;20120;-61
2022/05/06 09:54:01;;;;;;;0.73;0.73;;;18.00;55.80;;;;;;5061653;28;20036;-61
2022/05/06 09:56:28;;;;;;;1.08;0.98;;;18.00;56.00;;;;;;5075477;28;20033;-61
2022/05/06 09:58:55;;;;;;;0.90;0.90;;;17.90;56.50;;;;;;5079269;28;20047;-61
2022/05/06 10:01:21;;;;;;;4.28;1.00;;;17.90;57.00;;;;;;5081029;28;20281;-59
2022/05/06 10:03:47;;;;;;;1.27;1.17;;;17.90;57.50;;;;;;5087524;28;20127;-60
2022/05/06 10:06:14;;;;;;;1.40;0.90;;;17.90;58.00;;;;;;5082039;28;20033;-59
2022/05/06 10:08:48;;;;;;;0.77;0.77;;;17.90;58.20;;;;;;5072744;28;20110;-61
2022/05/06 10:11:17;;;;;;;2.25;1.10;;;17.90;58.50;;;;;;5077122;28;20380;-60
2022/05/06 10:13:45;;;;;;;1.10;1.00;;;17.90;59.00;;;;;;5070840;28;20036;-61
2022/05/06 10:16:11;;;;;;;1.10;1.00;;;17.90;59.10;;;;;;5054636;28;20020;-61
2022/05/06 10:18:38;;;;;;;3.03;0.90;;;17.90;59.40;;;;;;5061715;28;20045;-60
2022/05/06 10:21:04;;;;;;;;;;;17.90;59.50;;;;;;5070647;28;20029;-60
2022/05/06 10:23:57;;;;;;;0.93;0.80;;;17.90;59.60;;;;;;5066939;28;19912;-63
2022/05/06 10:27:01;;;;;;;1.50;1.00;;;17.90;59.60;;;;;;5078330;28;20104;-54
2022/05/06 10:32:50;;;;;;;1.83;1.00;;;18.00;60.30;;;;;;5084198;28;20035;-59
2022/05/06 10:35:17;;;;;;;2.95;1.10;;;18.00;60.20;;;;;;5066878;28;20088;-50
2022/05/06 10:37:44;;;;;;;4.93;1.10;;;18.00;60.30;;;;;;5076801;28;20040;-56
2022/05/06 10:40:23;;;;;;;3.20;1.20;;;18.10;59.90;;;;;;5083847;28;20055;-52
2022/05/06 10:42:49;;;;;;;1.70;1.10;;;18.10;59.50;;;;;;5076651;28;20045;-53
2022/05/06 10:45:32;;;;;;;2.70;1.00;;;18.10;59.50;;;;;;5085324;28;20028;-53
2022/05/06 10:47:58;;;;;;;1.75;1.10;;;18.10;59.40;;;;;;5089477;28;20051;-51
2022/05/06 10:50:29;;;;;;;1.52;1.00;;;18.10;59.40;;;;;;5082060;28;20078;-50
2022/05/06 10:52:56;;;;;;;1.80;1.08;;;18.20;59.20;;;;;;5080136;28;20047;-34
2022/05/06 10:55:23;;;;;;;1.45;1.10;;;18.20;59.40;;;;;;5082976;28;20028;-34
2022/05/06 10:57:54;;;;;;;1.17;1.08;;;18.20;59.40;;;;;;5074887;28;20123;-36
2022/05/06 11:00:21;;;;;;;2.55;1.40;;;18.20;59.40;;;;;;5084952;28;20028;-33
2022/05/06 11:02:48;;;;;;;5.45;1.20;;;18.20;59.40;;;;;;5084861;28;20035;-33
2022/05/06 11:05:17;;;;;;;2.20;1.05;;;18.20;59.60;;;;;;5085442;28;20048;-33
2022/05/06 11:07:45;;;;;;;2.85;1.10;;;18.20;59.90;;;;;;5073611;28;20029;-33
2022/05/06 11:10:16;;;;;;;4.47;1.30;;;18.30;60.00;;;;;;5087200;28;20070;-33
2022/05/06 11:12:45;;;;;;;2.92;1.10;;;18.30;60.10;;;;;;5099065;28;20078;-33
2022/05/06 11:15:16;;;;;;;1.50;1.13;;;18.30;60.10;;;;;;5079379;28;20020;-33
2022/05/06 11:17:43;;;;;;;1.65;1.02;;;18.30;60.20;;;;;;5089484;28;20048;-33
2022/05/06 11:20:23;;;;;;;;;;;18.30;60.20;;;;;;5087955;28;20027;-33
2022/05/06 11:22:56;;;;;;;2.15;1.20;;;18.30;60.10;;;;;;5089394;28;20035;-33
2022/05/06 11:25:23;;;;;;;3.45;1.10;;;18.40;60.10;;;;;;5087643;28;20888;-33
2022/05/06 11:27:51;;;;;;;1.63;1.02;;;18.40;60.10;;;;;;5082127;28;20040;-33
2022/05/06 11:30:17;;;;;;;2.58;1.17;;;18.40;60.10;;;;;;5088221;28;20138;-33
2022/05/06 11:33:04;;;;;;;1.53;0.73;;;18.40;60.10;;;;;;5081357;28;20033;-33
2022/05/06 11:35:48;;;;;;;4.65;1.35;;;18.40;60.10;;;;;;5088794;28;20088;-34
2022/05/06 11:38:14;;;;;;;1.13;1.02;;;18.40;60.10;;;;;;5090547;28;20024;-33
2022/05/06 11:40:40;;;;;;;1.20;0.90;;;18.40;60.20;;;;;;5082692;28;20412;-32
2022/05/06 11:43:08;;;;;;;2.47;0.98;;;18.50;60.20;;;;;;5082273;28;20029;-33
2022/05/06 11:48:22;;;;;;;1.05;0.80;;;18.50;60.10;;;;;;5082365;28;20074;-33
2022/05/06 11:50:53;;;;;;;1.10;0.90;;;18.50;60.00;;;;;;5085808;28;20653;-33
2022/05/06 11:53:21;;;;;;;1.50;0.90;;;18.50;60.00;;;;;;5078570;28;20031;-33
2022/05/06 11:55:47;;;;;;;1.85;1.00;;;18.50;60.00;;;;;;5087010;28;20091;-34
2022/05/06 11:58:16;;;;;;;3.72;0.93;;;18.50;60.00;;;;;;5088491;28;20041;-33
2022/05/06 12:00:42;;;;;;;1.25;0.93;;;18.60;60.00;;;;;;5080074;28;20032;-32
2022/05/06 12:03:09;;;;;;;3.20;0.90;;;18.60;60.00;;;;;;5079818;28;20089;-33
2022/05/06 12:05:39;;;;;;;1.25;0.95;;;18.60;60.20;;;;;;5084373;28;20046;-33
2022/05/06 12:08:05;;;;;;;1.30;0.93;;;18.60;60.10;;;;;;5084605;28;20063;-33
2022/05/06 12:10:33;;;;;;;1.35;0.90;;;18.60;60.10;;;;;;5088767;28;20072;-32
2022/05/06 12:13:00;;;;;;;;;;;18.60;60.20;;;;;;5086184;28;20040;-33
2022/05/06 12:15:34;;;;;;;1.63;1.02;;;18.70;60.10;;;;;;5085247;28;19913;-33
2022/05/06 12:18:10;;;;;;;6.43;1.10;;;18.70;60.90;;;;;;5082601;28;20059;-34
2022/05/06 12:20:48;;;;;;;2.70;1.10;;;18.70;60.00;;;;;;5084911;28;20021;-41
2022/05/06 12:23:15;;;;;;;3.17;1.02;;;18.70;60.10;;;;;;5088623;28;20036;-40
2022/05/06 12:25:41;;;;;;;3.92;0.90;;;18.70;60.20;;;;;;5080436;28;20430;-41
2022/05/06 12:28:17;;;;;;;3.15;0.88;;;18.70;60.30;;;;;;5081776;28;20679;-39
2022/05/06 12:30:47;;;;;;;2.67;0.95;;;18.70;60.30;;;;;;5084202;28;20060;-41
2022/05/06 12:33:14;;;;;;;1.27;0.98;;;18.70;60.30;;;;;;5083394;28;20024;-42
2022/05/06 12:35:58;;;;;;;;;;;18.80;60.40;;;;;;5087225;28;20046;-41
2022/05/06 12:38:26;;;;;;;3.28;0.95;;;18.80;60.60;;;;;;5085252;28;19913;-41
2022/05/06 12:40:53;;;;;;;3.15;1.02;;;18.80;60.50;;;;;;5085461;28;20040;-41
2022/05/06 12:43:28;;;;;;;3.63;0.83;;;18.80;60.70;;;;;;5083479;28;20033;-42
2022/05/06 12:45:55;;;;;;;1.80;0.90;;;18.80;60.70;;;;;;5081737;28;20040;-41
2022/05/06 12:51:07;;;;;;;2.95;0.77;;;18.80;60.70;;;;;;5083813;28;19915;-42
2022/05/06 12:53:34;;;;;;;1.52;1.00;;;18.80;60.80;;;;;;5080771;28;20028;-41
2022/05/06 12:56:01;;;;;;;2.67;0.85;;;18.80;60.80;;;;;;5082564;28;20412;-41
2022/05/06 12:58:30;;;;;;;2.17;1.05;;;18.80;60.70;;;;;;5075601;28;20205;-41
2022/05/06 13:00:57;;;;;;;1.33;0.80;;;18.90;60.80;;;;;;5082160;28;20016;-42
2022/05/06 13:03:23;;;;;;;2.22;0.90;;;18.90;60.80;;;;;;5082174;28;20038;-41
2022/05/06 13:05:50;;;;;;;3.03;0.95;;;18.90;60.90;;;;;;5079362;28;20109;-42
2022/05/06 13:08:16;;;;;;;1.00;0.80;;;18.90;60.90;;;;;;5086858;28;20026;-42
2022/05/06 13:10:42;;;;;;;2.20;0.80;;;18.90;61.00;;;;;;5082379;28;20066;-38
2022/05/06 13:13:08;;;;;;;3.03;1.00;;;18.90;61.00;;;;;;5078524;28;20033;-34
2022/05/06 13:15:35;;;;;;;6.65;1.17;;;18.90;61.00;;;;;;5080720;28;20033;-35
2022/05/06 13:18:01;;;;;;;1.77;0.80;;;19.00;61.30;;;;;;5084104;28;20028;-35
2022/05/06 13:20:27;;;;;;;2.55;1.00;;;19.00;62.00;;;;;;5079727;28;20035;-34
2022/05/06 13:22:53;;;;;;;1.77;1.02;;;19.00;61.30;;;;;;5078080;28;20039;-34
2022/05/06 13:25:19;;;;;;;2.90;1.00;;;19.00;61.30;;;;;;5082609;28;20021;-34
2022/05/06 13:27:45;;;;;;;4.05;0.80;;;19.00;61.20;;;;;;5081059;28;21107;-32
2022/05/06 13:30:12;;;;;;;2.53;1.05;;;19.00;61.20;;;;;;5084137;28;20021;-40
2022/05/06 13:32:38;;;;;;;4.18;1.10;;;19.10;61.20;;;;;;5086209;28;20032;-40
2022/05/06 13:35:04;;;;;;;3.55;0.90;;;19.00;61.20;;;;;;5079175;28;20036;-40
2022/05/06 13:37:30;;;;;;;1.75;1.10;;;19.10;61.30;;;;;;5080891;28;20135;-40
2022/05/06 13:39:57;;;;;;;2.83;0.93;;;19.10;61.20;;;;;;5083961;28;20032;-41
2022/05/06 13:42:23;;;;;;;4.97;1.00;;;19.10;61.10;;;;;;5080595;28;20035;-39
2022/05/06 13:44:49;;;;;;;3.42;0.80;;;19.10;61.00;;;;;;5083537;28;20055;-40
2022/05/06 13:47:16;;;;;;;2.25;1.00;;;19.10;61.60;;;;;;5092519;28;20043;-40
2022/05/06 13:49:43;;;;;;;3.22;1.35;;;19.10;60.70;;;;;;5080885;28;20104;-40
2022/05/06 13:52:09;;;;;;;5.35;1.38;;;19.10;60.60;;;;;;5089669;28;20089;-39
2022/05/06 13:54:35;;;;;;;5.72;1.50;;;19.20;60.80;;;;;;5083712;28;20028;-39
2022/05/06 14:00:07;;;;;;;5.28;1.27;;;19.20;62.50;;;;;;5096428;28;20032;-40
2022/05/06 14:02:33;;;;;;;2.58;0.98;;;19.30;63.70;;;;;;5079600;28;20033;-40
2022/05/06 14:04:59;;;;;;;6.20;1.40;;;19.30;64.20;;;;;;5096937;28;20051;-32
2022/05/06 14:07:25;;;;;;;5.07;1.50;;;19.30;64.10;;;;;;5096214;28;20036;-32
2022/05/06 14:09:51;;;;;;;19.88;2.20;;;19.40;64.70;;;;;;5097388;28;20044;-32
2022/05/06 14:12:18;;;;;;;7.90;2.10;;;19.40;64.50;;;;;;5097865;28;20139;-32
2022/05/06 14:14:44;;;;;;;10.20;3.08;;;19.40;64.80;;;;;;5098879;28;20024;-38
2022/05/06 14:17:10;;;;;;;6.15;2.25;;;19.50;65.40;;;;;;5096666;28;20040;-40
2022/05/06 14:19:36;;;;;;;3.90;1.63;;;19.60;64.90;;;;;;5095094;28;20032;-41
2022/05/06 14:22:02;;;;;;;6.28;1.60;;;19.60;64.20;;;;;;5096976;28;20031;-39
2022/05/06 14:24:29;;;;;;;7.10;1.65;;;19.60;63.70;;;;;;5097533;28;20043;-40
2022/05/06 14:26:55;;;;;;;8.03;2.07;;;19.70;64.10;;;;;;5071704;28;20105;-34
2022/05/06 14:29:22;;;;;;;4.35;1.17;;;19.70;64.30;;;;;;5095183;28;20024;-33
2022/05/06 14:31:48;;;;;;;4.43;1.60;;;19.70;64.10;;;;;;5087299;28;20500;-33
2022/05/06 14:34:14;;;;;;;4.80;1.35;;;19.70;63.30;;;;;;5089110;28;20082;-33
2022/05/06 14:36:40;;;;;;;3.92;1.33;;;19.70;62.60;;;;;;5086408;28;20063;-33
2022/05/06 14:39:06;;;;;;;3.00;1.27;;;19.70;62.20;;;;;;5081690;28;20027;-33
2022/05/06 14:41:32;;;;;;;6.90;1.75;;;19.80;61.90;;;;;;5083576;28;20032;-33
2022/05/06 14:43:59;;;;;;;2.97;1.20;;;19.80;61.50;;;;;;5078875;28;20033;-33
2022/05/06 14:46:25;;;;;;;5.43;1.30;;;19.80;61.50;;;;;;5084657;28;20051;-33
2022/05/06 14:48:51;;;;;;;5.35;1.50;;;19.80;61.40;;;;;;5080254;28;20051;-33
2022/05/06 14:51:17;;;;;;;3.95;1.48;;;19.80;61.40;;;;;;5082998;28;20032;-33
2022/05/06 14:53:43;;;;;;;4.40;1.40;;;19.80;61.30;;;;;;5089139;28;20039;-33
2022/05/06 14:56:09;;;;;;;3.10;1.20;;;19.80;61.20;;;;;;5089394;28;20053;-34